createdAt,value
2022-10-06T00:00:07.835Z,101443.97
2022-10-06T00:02:36.315Z,101437.31
2022-10-06T00:05:03.159Z,101437.19
2022-10-06T00:07:29.850Z,101444.00
2022-10-06T00:09:56.498Z,101452.63
2022-10-06T00:12:23.140Z,101442.78
2022-10-06T00:14:49.803Z,101450.78
2022-10-06T00:17:16.695Z,101455.25
2022-10-06T00:19:43.459Z,101454.22
2022-10-06T00:22:10.134Z,101465.09
2022-10-06T00:24:36.805Z,101467.13
2022-10-06T00:27:03.468Z,101459.53
2022-10-06T00:29:30.108Z,101461.97
2022-10-06T00:31:56.864Z,101458.72
2022-10-06T00:34:23.633Z,101473.38
2022-10-06T00:36:50.329Z,101460.53
2022-10-06T00:39:17.013Z,101475.63
2022-10-06T00:41:43.707Z,101475.19
2022-10-06T00:44:10.365Z,101485.47
2022-10-06T00:46:40.761Z,101481.84
2022-10-06T00:49:21.451Z,101474.66
2022-10-06T00:51:49.834Z,101481.09
2022-10-06T00:54:17.774Z,101482.78
2022-10-06T00:56:44.660Z,101477.22
2022-10-06T00:59:13.412Z,101475.63
2022-10-06T01:01:42.793Z,101480.97
2022-10-06T01:04:10.792Z,101480.91
2022-10-06T01:06:46.948Z,101485.81
2022-10-06T01:09:15.601Z,101486.28
2022-10-06T01:11:42.669Z,101483.66
2022-10-06T01:14:09.378Z,101484.53
2022-10-06T01:16:38.148Z,101480.22
2022-10-06T01:19:06.747Z,101489.63
2022-10-06T01:21:39.161Z,101492.25
2022-10-06T01:24:08.098Z,101491.44
2022-10-06T01:26:36.839Z,101498.50
2022-10-06T01:29:03.631Z,101504.09
2022-10-06T01:31:31.259Z,101497.94
2022-10-06T01:33:58.909Z,101504.41
2022-10-06T01:36:25.818Z,101508.50
2022-10-06T01:38:52.562Z,101499.63
2022-10-06T01:41:19.783Z,101503.94
2022-10-06T01:43:46.673Z,101508.03
2022-10-06T01:46:13.520Z,101505.81
2022-10-06T01:48:41.021Z,101505.06
2022-10-06T01:51:13.889Z,101500.97
2022-10-06T01:53:41.101Z,101500.69
2022-10-06T01:56:07.983Z,101500.69
2022-10-06T01:58:35.292Z,101503.44
2022-10-06T02:01:07.440Z,101493.34
2022-10-06T02:03:36.536Z,101497.22
2022-10-06T02:06:03.341Z,101502.66
2022-10-06T02:08:31.300Z,101498.81
2022-10-06T02:10:59.972Z,101497.94
2022-10-06T02:13:30.237Z,101507.78
2022-10-06T02:16:00.039Z,101505.78
2022-10-06T02:18:27.389Z,101511.84
2022-10-06T02:20:54.696Z,101515.25
2022-10-06T02:23:21.361Z,101513.50
2022-10-06T02:25:48.105Z,101520.91
2022-10-06T02:28:16.967Z,101525.66
2022-10-06T02:30:44.387Z,101525.50
2022-10-06T02:33:11.192Z,101524.63
2022-10-06T02:35:37.896Z,101529.28
2022-10-06T02:38:04.600Z,101528.19
2022-10-06T02:40:31.409Z,101519.81
2022-10-06T02:42:58.397Z,101534.25
2022-10-06T02:45:25.494Z,101536.66
2022-10-06T02:47:54.676Z,101543.31
2022-10-06T02:50:21.357Z,101539.34
2022-10-06T02:52:48.084Z,101544.28
2022-10-06T02:55:15.537Z,101541.91
2022-10-06T02:57:42.426Z,101549.31
2022-10-06T03:00:10.843Z,101556.50
2022-10-06T03:02:37.871Z,101553.06
2022-10-06T03:05:04.932Z,101570.09
2022-10-06T03:07:31.707Z,101559.00
2022-10-06T03:09:58.378Z,101564.63
2022-10-06T03:12:26.932Z,101581.72
2022-10-06T03:14:53.592Z,101580.03
2022-10-06T03:17:20.905Z,101586.06
2022-10-06T03:19:57.089Z,101591.97
2022-10-06T03:22:24.830Z,101597.97
2022-10-06T03:24:54.497Z,101598.94
2022-10-06T03:27:21.699Z,101606.16
2022-10-06T03:29:49.601Z,101616.56
2022-10-06T03:32:16.480Z,101630.13
2022-10-06T03:34:43.964Z,101632.56
2022-10-06T03:37:13.409Z,101647.41
2022-10-06T03:39:40.460Z,101633.91
2022-10-06T03:42:07.219Z,101655.06
2022-10-06T03:44:35.220Z,101670.19
2022-10-06T03:47:02.692Z,101689.03
2022-10-06T03:49:30.508Z,101684.09
2022-10-06T03:51:57.284Z,101677.47
2022-10-06T03:54:27.872Z,101684.56
2022-10-06T03:56:55.395Z,101693.88
2022-10-06T03:59:22.114Z,101701.84
2022-10-06T04:01:50.358Z,101702.28
2022-10-06T04:04:25.055Z,101710.09
2022-10-06T04:06:57.616Z,101711.78
2022-10-06T04:09:24.338Z,101721.66
2022-10-06T04:11:52.626Z,101721.13
2022-10-06T04:14:20.312Z,101734.88
2022-10-06T04:16:49.044Z,101720.13
2022-10-06T04:19:20.898Z,101729.28
2022-10-06T04:21:52.992Z,101734.41
2022-10-06T04:24:29.087Z,101749.34
2022-10-06T04:27:16.899Z,101754.41
2022-10-06T04:29:48.332Z,101746.28
2022-10-06T04:32:15.959Z,101753.88
2022-10-06T04:34:42.679Z,101763.22
2022-10-06T04:37:10.503Z,101752.06
2022-10-06T04:39:38.405Z,101764.56
2022-10-06T04:42:06.916Z,101779.22
2022-10-06T04:44:33.665Z,101776.53
2022-10-06T04:47:02.236Z,101779.97
2022-10-06T04:49:28.994Z,101774.03
2022-10-06T04:51:56.555Z,101786.16
2022-10-06T04:54:23.567Z,101791.34
2022-10-06T04:56:54.841Z,101793.16
2022-10-06T04:59:43.858Z,101794.16
2022-10-06T05:02:12.135Z,101807.84
2022-10-06T05:04:39.759Z,101820.13
2022-10-06T05:07:07.532Z,101821.28
2022-10-06T05:09:34.253Z,101828.84
2022-10-06T05:12:02.255Z,101833.03
2022-10-06T05:14:28.985Z,101840.59
2022-10-06T05:16:55.924Z,101849.34
2022-10-06T05:19:22.642Z,101847.69
2022-10-06T05:21:49.357Z,101860.31
2022-10-06T05:24:20.238Z,101866.53
2022-10-06T05:26:49.319Z,101861.44
2022-10-06T05:29:16.605Z,101875.94
2022-10-06T05:31:45.025Z,101875.66
2022-10-06T05:34:13.640Z,101886.84
2022-10-06T05:36:40.550Z,101892.47
2022-10-06T05:39:08.637Z,101919.13
2022-10-06T05:41:41.660Z,101912.09
2022-10-06T05:44:10.973Z,101914.06
2022-10-06T05:46:39.648Z,101929.19
2022-10-06T05:49:10.616Z,101931.69
2022-10-06T05:51:42.066Z,101944.31
2022-10-06T05:54:22.787Z,101952.09
2022-10-06T05:56:50.413Z,101958.28
2022-10-06T05:59:17.177Z,101970.50
2022-10-06T06:01:44.396Z,101977.31
2022-10-06T06:04:21.979Z,101993.66
2022-10-06T06:06:52.578Z,101998.59
2022-10-06T06:09:22.249Z,102000.78
2022-10-06T06:11:53.107Z,102011.75
2022-10-06T06:15:01.435Z,102024.56
2022-10-06T06:17:50.983Z,102016.31
2022-10-06T06:20:17.723Z,102033.31
2022-10-06T06:22:44.637Z,102046.03
2022-10-06T06:25:13.111Z,102044.94
2022-10-06T06:27:42.378Z,102048.47
2022-10-06T06:30:10.164Z,102056.13
2022-10-06T06:32:37.157Z,102057.13
2022-10-06T06:35:04.407Z,102063.25
2022-10-06T06:37:32.277Z,102068.84
2022-10-06T06:40:00.807Z,102071.31
2022-10-06T06:42:27.959Z,102081.72
2022-10-06T06:45:17.752Z,102082.81
2022-10-06T06:48:04.335Z,102099.03
2022-10-06T06:50:32.654Z,102097.25
2022-10-06T06:53:02.582Z,102102.44
2022-10-06T06:55:31.322Z,102105.09
2022-10-06T06:57:59.615Z,102112.84
2022-10-06T07:00:33.767Z,102125.13
2022-10-06T07:03:03.074Z,102125.63
2022-10-06T07:05:32.438Z,102136.22
2022-10-06T07:07:59.678Z,102138.56
2022-10-06T07:10:28.122Z,102142.69
2022-10-06T07:12:55.246Z,102153.03
2022-10-06T07:15:40.563Z,102159.94
2022-10-06T07:18:29.020Z,102172.47
2022-10-06T07:21:14.573Z,102168.63
2022-10-06T07:24:00.360Z,102172.34
2022-10-06T07:26:31.183Z,102166.44
2022-10-06T07:29:01.607Z,102183.59
2022-10-06T07:31:33.638Z,102189.41
2022-10-06T07:34:02.632Z,102195.41
2022-10-06T07:36:29.379Z,102193.13
2022-10-06T07:38:56.277Z,102201.59
2022-10-06T07:41:23.628Z,102188.47
2022-10-06T07:43:56.938Z,102193.78
2022-10-06T07:46:26.703Z,102199.00
2022-10-06T07:48:58.616Z,102206.97
2022-10-06T07:51:27.402Z,102209.41
2022-10-06T07:53:56.277Z,102226.88
2022-10-06T07:56:45.779Z,102224.88
2022-10-06T07:59:12.973Z,102225.03
2022-10-06T08:01:39.910Z,102235.00
2022-10-06T08:04:07.081Z,102230.03
2022-10-06T08:06:34.388Z,102244.78
2022-10-06T08:09:01.570Z,102248.09
2022-10-06T08:11:28.439Z,102248.44
2022-10-06T08:13:55.103Z,102252.09
2022-10-06T08:16:30.328Z,102249.50
2022-10-06T08:18:59.855Z,102260.41
2022-10-06T08:21:31.490Z,102253.16
2022-10-06T08:23:58.885Z,102272.06
2022-10-06T08:26:27.499Z,102269.56
2022-10-06T08:28:57.718Z,102273.72
2022-10-06T08:31:24.688Z,102274.38
2022-10-06T08:33:56.847Z,102282.06
2022-10-06T08:36:30.899Z,102286.31
2022-10-06T08:38:58.688Z,102289.53
2022-10-06T08:41:27.044Z,102302.25
2022-10-06T08:44:21.054Z,102299.75
2022-10-06T08:47:00.718Z,102316.53
2022-10-06T08:49:35.862Z,102311.03
2022-10-06T08:52:26.571Z,102319.72
2022-10-06T08:55:31.682Z,102318.66
2022-10-06T08:58:32.371Z,102320.44
2022-10-06T09:01:08.083Z,102328.72
2022-10-06T09:03:35.523Z,102326.75
2022-10-06T09:06:12.423Z,102333.69
2022-10-06T09:08:42.167Z,102335.19
2022-10-06T09:11:17.035Z,102329.53
2022-10-06T09:13:53.396Z,102344.97
2022-10-06T09:16:30.579Z,102334.69
2022-10-06T09:19:24.630Z,102344.59
2022-10-06T09:21:53.334Z,102331.81
2022-10-06T09:24:29.097Z,102352.41
2022-10-06T09:26:59.228Z,102355.41
2022-10-06T09:29:29.371Z,102355.84
2022-10-06T09:31:56.080Z,102354.66
2022-10-06T09:34:46.189Z,102363.31
2022-10-06T09:37:13.885Z,102372.25
2022-10-06T09:39:43.009Z,102364.66
2022-10-06T09:42:26.007Z,102369.72
2022-10-06T09:45:08.181Z,102373.09
2022-10-06T09:47:45.786Z,102375.41
2022-10-06T09:50:20.489Z,102365.19
2022-10-06T09:53:00.772Z,102367.06
2022-10-06T09:55:30.165Z,102373.78
2022-10-06T09:57:57.915Z,102362.44
2022-10-06T10:00:33.204Z,102369.16
2022-10-06T10:03:03.197Z,102376.81
2022-10-06T10:05:33.075Z,102379.44
2022-10-06T10:08:27.667Z,102384.69
2022-10-06T10:11:33.001Z,102387.22
2022-10-06T10:14:00.545Z,102388.00
2022-10-06T10:16:35.193Z,102378.19
2022-10-06T10:19:04.279Z,102393.03
2022-10-06T10:21:35.640Z,102398.88
2022-10-06T10:24:07.636Z,102399.13
2022-10-06T10:27:04.326Z,102405.78
2022-10-06T10:29:59.494Z,102402.53
2022-10-06T10:32:38.517Z,102403.97
2022-10-06T10:35:21.850Z,102412.97
2022-10-06T10:38:04.165Z,102403.41
2022-10-06T10:40:43.082Z,102400.78
2022-10-06T10:43:43.203Z,102414.75
2022-10-06T10:46:11.625Z,102408.19
2022-10-06T10:48:43.832Z,102407.09
2022-10-06T10:51:19.787Z,102411.03
2022-10-06T10:53:59.730Z,102420.81
2022-10-06T10:56:27.538Z,102419.69
2022-10-06T10:58:57.308Z,102419.47
2022-10-06T11:01:36.382Z,102423.94
2022-10-06T11:04:03.287Z,102417.94
2022-10-06T11:06:40.794Z,102424.75
2022-10-06T11:09:24.111Z,102421.59
2022-10-06T11:12:14.256Z,102415.28
2022-10-06T11:15:08.877Z,102430.72
2022-10-06T11:17:44.667Z,102428.91
2022-10-06T11:20:40.147Z,102423.09
2022-10-06T11:23:25.532Z,102424.75
2022-10-06T11:26:27.101Z,102432.25
2022-10-06T11:29:16.315Z,102440.75
2022-10-06T11:32:01.429Z,102437.63
2022-10-06T11:34:28.259Z,102433.75
2022-10-06T11:37:23.369Z,102433.84
2022-10-06T11:40:06.246Z,102443.28
2022-10-06T11:42:44.024Z,102439.13
2022-10-06T11:45:14.856Z,102446.03
2022-10-06T11:48:24.582Z,102433.91
2022-10-06T11:50:55.395Z,102442.75
2022-10-06T11:53:37.270Z,102442.88
2022-10-06T11:56:19.502Z,102444.41
2022-10-06T11:58:52.242Z,102447.28
2022-10-06T12:01:28.061Z,102445.47
2022-10-06T12:04:10.143Z,102440.56
2022-10-06T12:06:42.912Z,102454.06
2022-10-06T12:09:24.975Z,102449.22
2022-10-06T12:12:14.888Z,102455.03
2022-10-06T12:17:51.974Z,102452.41
2022-10-06T12:20:37.916Z,102453.16
2022-10-06T12:23:16.272Z,102455.72
2022-10-06T12:26:03.305Z,102447.03
2022-10-06T12:28:49.237Z,102448.72
2022-10-06T12:31:22.025Z,102460.53
2022-10-06T12:33:48.932Z,102454.22
2022-10-06T12:36:17.785Z,102449.31
2022-10-06T12:39:01.571Z,102455.09
2022-10-06T12:42:03.303Z,102446.53
2022-10-06T12:44:41.127Z,102460.44
2022-10-06T12:47:15.635Z,102458.06
2022-10-06T12:49:46.521Z,102454.75
2022-10-06T12:52:20.469Z,102464.47
2022-10-06T12:55:16.455Z,102460.97
2022-10-06T12:57:48.195Z,102456.56
2022-10-06T13:00:36.178Z,102464.53
2022-10-06T13:03:06.278Z,102471.34
2022-10-06T13:05:36.690Z,102463.13
2022-10-06T13:08:18.351Z,102468.56
2022-10-06T13:10:45.029Z,102460.38
2022-10-06T13:13:24.523Z,102467.31
2022-10-06T13:15:55.870Z,102468.78
2022-10-06T13:18:23.282Z,102469.16
2022-10-06T13:20:53.966Z,102464.69
2022-10-06T13:23:31.654Z,102475.81
2022-10-06T13:26:01.180Z,102475.81
2022-10-06T13:28:36.998Z,102471.34
2022-10-06T13:31:26.899Z,102472.88
2022-10-06T13:34:02.904Z,102477.66
2022-10-06T13:36:31.047Z,102475.16
2022-10-06T13:38:58.397Z,102480.13
2022-10-06T13:41:30.714Z,102482.91
2022-10-06T13:44:03.807Z,102486.69
2022-10-06T13:46:32.492Z,102485.25
2022-10-06T13:49:03.572Z,102489.72
2022-10-06T13:51:32.433Z,102488.63
2022-10-06T13:54:01.368Z,102488.03
2022-10-06T13:58:55.785Z,102479.84
2022-10-06T14:01:30.228Z,102481.28
2022-10-06T14:04:19.243Z,102492.38
2022-10-06T14:06:51.502Z,102496.16
2022-10-06T14:09:22.820Z,102492.13
2022-10-06T14:11:49.778Z,102488.47
2022-10-06T14:14:18.227Z,102498.94
2022-10-06T14:16:50.922Z,102490.81
2022-10-06T14:19:36.049Z,102500.09
2022-10-06T14:22:04.783Z,102492.75
2022-10-06T14:24:34.346Z,102492.06
2022-10-06T14:27:02.735Z,102497.41
2022-10-06T14:29:29.583Z,102494.72
2022-10-06T14:31:56.325Z,102498.03
2022-10-06T14:34:23.110Z,102493.97
2022-10-06T14:36:55.382Z,102496.13
2022-10-06T14:39:22.371Z,102495.03
2022-10-06T14:41:49.177Z,102495.03
2022-10-06T14:44:16.369Z,102500.72
2022-10-06T14:46:47.126Z,102499.28
2022-10-06T14:49:14.167Z,102513.16
2022-10-06T14:51:42.167Z,102496.72
2022-10-06T14:54:10.331Z,102503.28
2022-10-06T14:56:38.544Z,102493.66
2022-10-06T14:59:07.076Z,102503.44
2022-10-06T15:01:36.114Z,102494.25
2022-10-06T15:04:08.582Z,102504.09
2022-10-06T15:06:53.969Z,102500.66
2022-10-06T15:09:20.676Z,102506.38
2022-10-06T15:11:48.434Z,102493.81
2022-10-06T15:14:15.479Z,102503.34
2022-10-06T15:16:43.980Z,102499.59
2022-10-06T15:19:11.951Z,102513.16
2022-10-06T15:21:45.584Z,102507.19
2022-10-06T15:24:14.939Z,102507.84
2022-10-06T15:27:00.807Z,102515.94
2022-10-06T15:29:27.676Z,102509.53
2022-10-06T15:31:55.377Z,102520.56
2022-10-06T15:34:27.611Z,102519.91
2022-10-06T15:36:55.970Z,102512.56
2022-10-06T15:39:28.215Z,102515.47
2022-10-06T15:41:55.016Z,102521.69
2022-10-06T15:44:21.851Z,102512.88
2022-10-06T15:46:53.876Z,102516.88
2022-10-06T15:49:24.953Z,102517.94
2022-10-06T15:51:54.286Z,102516.50
2022-10-06T15:54:25.983Z,102516.94
2022-10-06T15:56:54.308Z,102518.03
2022-10-06T15:59:24.133Z,102529.47
2022-10-06T16:01:52.476Z,102526.84
2022-10-06T16:04:25.949Z,102520.75
2022-10-06T16:06:56.379Z,102529.06
2022-10-06T16:09:26.190Z,102532.00
2022-10-06T16:11:53.798Z,102538.50
2022-10-06T16:14:21.114Z,102535.19
2022-10-06T16:16:48.442Z,102528.31
2022-10-06T16:19:16.149Z,102535.78
2022-10-06T16:21:43.108Z,102531.63
2022-10-06T16:24:09.907Z,102533.75
2022-10-06T16:26:36.653Z,102538.56
2022-10-06T16:29:04.041Z,102543.31
2022-10-06T16:31:30.894Z,102546.28
2022-10-06T16:33:58.132Z,102541.28
2022-10-06T16:36:25.021Z,102544.25
2022-10-06T16:38:53.222Z,102549.88
2022-10-06T16:41:20.689Z,102547.47
2022-10-06T16:43:48.965Z,102548.69
2022-10-06T16:46:22.730Z,102552.56
2022-10-06T16:48:52.246Z,102555.53
2022-10-06T16:51:28.166Z,102559.41
2022-10-06T16:53:58.602Z,102572.25
2022-10-06T16:56:45.370Z,102572.50
2022-10-06T16:59:19.927Z,102571.84
2022-10-06T17:01:47.697Z,102569.44
2022-10-06T17:04:25.070Z,102581.31
2022-10-06T17:06:54.348Z,102578.00
2022-10-06T17:09:23.160Z,102574.75
2022-10-06T17:11:55.825Z,102589.28
2022-10-06T17:14:23.965Z,102584.19
2022-10-06T17:16:53.581Z,102587.03
2022-10-06T17:19:22.516Z,102593.47
2022-10-06T17:21:54.113Z,102590.09
2022-10-06T17:24:25.713Z,102583.94
2022-10-06T17:26:52.918Z,102588.59
2022-10-06T17:29:21.834Z,102594.03
2022-10-06T17:31:50.896Z,102587.97
2022-10-06T17:34:21.982Z,102587.19
2022-10-06T17:36:51.411Z,102598.94
2022-10-06T17:39:20.711Z,102599.09
2022-10-06T17:41:50.910Z,102600.13
2022-10-06T17:44:23.732Z,102581.66
2022-10-06T17:46:53.999Z,102593.34
2022-10-06T17:49:21.883Z,102598.03
2022-10-06T17:51:49.720Z,102594.53
2022-10-06T17:54:20.113Z,102600.88
2022-10-06T17:56:52.209Z,102604.69
2022-10-06T17:59:21.057Z,102601.19
2022-10-06T18:01:48.506Z,102606.69
2022-10-06T18:04:16.693Z,102604.16
2022-10-06T18:06:44.859Z,102602.53
2022-10-06T18:09:12.337Z,102603.53
2022-10-06T18:11:43.638Z,102601.94
2022-10-06T18:14:16.428Z,102602.91
2022-10-06T18:16:52.117Z,102603.91
2022-10-06T18:19:28.380Z,102612.06
2022-10-06T18:21:56.815Z,102610.47
2022-10-06T18:24:25.668Z,102613.25
2022-10-06T18:26:54.276Z,102610.69
2022-10-06T18:29:23.709Z,102610.75
2022-10-06T18:31:52.368Z,102610.84
2022-10-06T18:37:07.395Z,102607.53
2022-10-06T18:39:34.229Z,102608.41
2022-10-06T18:42:03.816Z,102616.53
2022-10-06T18:44:49.169Z,102615.78
2022-10-06T18:47:34.571Z,102611.41
2022-10-06T18:50:01.819Z,102612.44
2022-10-06T18:52:28.701Z,102616.94
2022-10-06T18:54:55.562Z,102619.63
2022-10-06T18:57:27.229Z,102622.34
2022-10-06T18:59:55.497Z,102621.47
2022-10-06T19:02:22.595Z,102621.44
2022-10-06T19:04:49.583Z,102626.88
2022-10-06T19:07:16.246Z,102630.53
2022-10-06T19:09:46.601Z,102626.16
2022-10-06T19:12:16.549Z,102623.59
2022-10-06T19:14:47.799Z,102630.75
2022-10-06T19:17:15.267Z,102627.28
2022-10-06T19:19:55.395Z,102632.69
2022-10-06T19:22:24.866Z,102638.97
2022-10-06T19:24:52.409Z,102638.13
2022-10-06T19:27:24.363Z,102630.16
2022-10-06T19:29:54.658Z,102634.59
2022-10-06T19:32:24.932Z,102642.63
2022-10-06T19:34:52.402Z,102645.31
2022-10-06T19:37:19.612Z,102639.16
2022-10-06T19:39:48.227Z,102649.88
2022-10-06T19:42:35.524Z,102640.09
2022-10-06T19:45:02.628Z,102648.19
2022-10-06T19:47:30.369Z,102645.53
2022-10-06T19:50:02.111Z,102642.91
2022-10-06T19:52:31.489Z,102643.88
2022-10-06T19:54:58.484Z,102653.75
2022-10-06T19:57:28.698Z,102646.72
2022-10-06T19:59:55.723Z,102650.38
2022-10-06T20:02:22.949Z,102659.31
2022-10-06T20:04:50.677Z,102661.13
2022-10-06T20:07:21.670Z,102653.97
2022-10-06T20:09:48.750Z,102663.81
2022-10-06T20:12:19.704Z,102662.94
2022-10-06T20:14:47.711Z,102661.19
2022-10-06T20:17:14.739Z,102671.00
2022-10-06T20:19:41.674Z,102654.16
2022-10-06T20:22:08.571Z,102660.44
2022-10-06T20:24:36.022Z,102660.44
2022-10-06T20:27:02.915Z,102660.44
2022-10-06T20:29:31.685Z,102672.06
2022-10-06T20:31:59.594Z,102668.50
2022-10-06T20:34:32.414Z,102672.09
2022-10-06T20:37:03.232Z,102670.34
2022-10-06T20:39:50.746Z,102670.41
2022-10-06T20:42:18.672Z,102666.88
2022-10-06T20:44:45.887Z,102670.47
2022-10-06T20:47:13.492Z,102671.38
2022-10-06T20:49:42.154Z,102676.72
2022-10-06T20:52:10.090Z,102676.75
2022-10-06T20:54:37.560Z,102680.34
2022-10-06T20:57:05.713Z,102674.97
2022-10-06T20:59:33.313Z,102673.22
2022-10-06T21:02:00.505Z,102676.81
2022-10-06T21:04:27.831Z,102672.38
2022-10-06T21:06:55.027Z,102675.06
2022-10-06T21:09:21.904Z,102671.50
2022-10-06T21:11:49.582Z,102674.22
2022-10-06T21:14:16.662Z,102678.66
2022-10-06T21:16:45.332Z,102670.69
2022-10-06T21:19:14.749Z,102663.56
2022-10-06T21:21:43.045Z,102670.72
2022-10-06T21:24:10.110Z,102664.50
2022-10-06T21:26:38.929Z,102661.81
2022-10-06T21:29:05.743Z,102666.31
2022-10-06T21:31:33.402Z,102669.88
2022-10-06T21:34:01.578Z,102669.00
2022-10-06T21:36:31.843Z,102665.41
2022-10-06T21:39:00.233Z,102660.09
2022-10-06T21:41:32.639Z,102669.03
2022-10-06T21:44:09.432Z,102656.56
2022-10-06T21:46:50.306Z,102653.00
2022-10-06T21:49:19.382Z,102659.25
2022-10-06T21:51:48.073Z,102654.84
2022-10-06T21:54:15.086Z,102653.94
2022-10-06T21:56:42.268Z,102652.19
2022-10-06T21:59:09.184Z,102653.09
2022-10-06T22:01:38.617Z,102653.09
2022-10-06T22:04:05.933Z,102653.09
2022-10-06T22:06:34.553Z,102646.00
2022-10-06T22:09:02.012Z,102654.91
2022-10-06T22:11:31.671Z,102650.47
2022-10-06T22:14:00.783Z,102645.13
2022-10-06T22:16:29.588Z,102638.06
2022-10-06T22:18:56.474Z,102651.38
2022-10-06T22:21:28.802Z,102650.44
2022-10-06T22:24:06.567Z,102642.44
2022-10-06T22:26:35.033Z,102638.94
2022-10-06T22:29:01.835Z,102643.34
2022-10-06T22:31:28.778Z,102638.06
2022-10-06T22:33:57.966Z,102637.19
2022-10-06T22:36:25.853Z,102628.31
2022-10-06T22:38:53.251Z,102628.31
2022-10-06T22:41:20.300Z,102635.41
2022-10-06T22:43:47.163Z,102631.91
2022-10-06T22:46:14.298Z,102630.13
2022-10-06T22:48:41.824Z,102641.69
2022-10-06T22:51:08.691Z,102639.00
2022-10-06T22:53:35.723Z,102639.91
2022-10-06T22:56:03.986Z,102637.22
2022-10-06T22:58:31.337Z,102636.34
2022-10-06T23:00:58.263Z,102635.47
2022-10-06T23:03:25.441Z,102636.38
2022-10-06T23:06:00.105Z,102621.25
2022-10-06T23:08:32.723Z,102626.59
2022-10-06T23:11:09.717Z,102620.38
2022-10-06T23:13:36.834Z,102624.84
2022-10-06T23:16:07.583Z,102623.06
2022-10-06T23:18:37.140Z,102618.63
2022-10-06T23:21:08.951Z,102618.63
2022-10-06T23:23:36.462Z,102613.31
2022-10-06T23:26:08.211Z,102613.28
2022-10-06T23:28:35.156Z,102609.75
2022-10-06T23:31:04.398Z,102604.41
2022-10-06T23:33:31.960Z,102615.94
2022-10-06T23:36:00.240Z,102620.38
2022-10-06T23:38:27.455Z,102609.75
2022-10-06T23:40:54.541Z,102608.84
2022-10-06T23:43:22.648Z,102612.38
2022-10-06T23:45:49.547Z,102617.72
2022-10-06T23:48:16.765Z,102616.84
2022-10-06T23:50:43.562Z,102615.94
2022-10-06T23:53:10.336Z,102611.50
2022-10-06T23:55:37.160Z,102608.84
2022-10-06T23:58:03.932Z,102615.06
